Time;durP1;ratioP1;P1;durP2;ratioP2;P2;SDS_P1;SDS_P2;PMS_P1;PMS_P2;Temp;Humidity;BMP_temperature;BMP_pressure;BME280_temperature;BME280_humidity;BME280_pressure;Samples;Min_cycle;Max_cycle;Signal;HPM_P1;HPM_P2
2022/08/09 00:00:57;;;;;;;5.38;1.90;;;;;;;;;;4990964;28;20040;-81
2022/08/09 00:03:22;;;;;;;3.47;2.00;;;;;;;;;;4983305;28;20034;-81
2022/08/09 00:05:48;;;;;;;3.60;1.88;;;;;;;;;;4985740;28;20030;-81
2022/08/09 00:08:13;;;;;;;3.80;1.90;;;;;;;;;;5019740;28;20033;-82
2022/08/09 00:10:39;;;;;;;5.25;2.63;;;;;;;;;;5007970;28;20869;-82
2022/08/09 00:13:07;;;;;;;4.00;1.98;;;;;;;;;;5003650;28;20052;-81
2022/08/09 00:15:33;;;;;;;4.13;2.00;;;;;;;;;;4996137;28;20037;-82
2022/08/09 00:17:58;;;;;;;5.38;1.85;;;;;;;;;;5015331;28;20445;-82
2022/08/09 00:20:24;;;;;;;4.85;2.10;;;;;;;;;;5002998;28;20088;-82
2022/08/09 00:22:49;;;;;;;6.47;2.03;;;;;;;;;;5015585;28;20046;-82
2022/08/09 00:25:15;;;;;;;3.83;1.75;;;;;;;;;;4999023;28;20117;-83
2022/08/09 00:27:40;;;;;;;5.45;1.95;;;;;;;;;;4986748;28;20044;-82
2022/08/09 00:30:06;;;;;;;3.92;1.80;;;;;;;;;;4995390;28;20037;-82
2022/08/09 00:32:31;;;;;;;3.45;1.85;;;;;;;;;;5000888;28;20042;-82
2022/08/09 00:34:57;;;;;;;3.97;1.77;;;;;;;;;;4991720;28;20041;-83
2022/08/09 00:37:22;;;;;;;4.65;2.00;;;;;;;;;;4996807;28;20042;-82
2022/08/09 00:39:47;;;;;;;7.03;2.60;;;;;;;;;;5013945;28;20092;-81
2022/08/09 00:42:13;;;;;;;5.28;2.10;;;;;;;;;;4995544;28;20034;-82
2022/08/09 00:44:39;;;;;;;4.70;2.10;;;;;;;;;;4992140;28;20045;-82
2022/08/09 00:47:04;;;;;;;4.95;2.20;;;;;;;;;;4984361;28;20025;-82
2022/08/09 00:49:30;;;;;;;5.88;1.75;;;;;;;;;;5016638;28;20511;-82
2022/08/09 00:51:56;;;;;;;4.00;1.75;;;;;;;;;;4984861;28;20044;-82
2022/08/09 00:54:22;;;;;;;3.92;1.60;;;;;;;;;;5000671;28;20042;-82
2022/08/09 00:56:48;;;;;;;6.95;2.20;;;;;;;;;;4994297;28;20092;-82
2022/08/09 00:59:13;;;;;;;4.95;1.80;;;;;;;;;;5002578;28;20456;-81
2022/08/09 01:01:39;;;;;;;3.90;1.85;;;;;;;;;;5008037;28;20034;-82
2022/08/09 01:04:23;;;;;;;4.38;1.92;;;;;;;;;;5001225;28;20042;-82
2022/08/09 01:06:58;;;;;;;4.00;2.10;;;;;;;;;;5007307;28;20124;-82
2022/08/09 01:09:41;;;;;;;4.53;1.58;;;;;;;;;;5003748;28;20588;-82
2022/08/09 01:12:27;;;;;;;4.47;1.88;;;;;;;;;;4998959;28;20045;-81
2022/08/09 01:15:12;;;;;;;6.07;1.83;;;;;;;;;;5014254;28;20061;-82
2022/08/09 01:17:41;;;;;;;6.75;2.00;;;;;;;;;;4998589;28;20088;-82
2022/08/09 01:20:08;;;;;;;4.00;1.92;;;;;;;;;;4993323;28;20038;-81
2022/08/09 01:23:11;;;;;;;3.97;2.03;;;;;;;;;;5008608;28;20053;-81
2022/08/09 01:25:55;;;;;;;4.13;2.05;;;;;;;;;;5014796;28;20040;-83
2022/08/09 01:28:21;;;;;;;3.72;1.95;;;;;;;;;;5007058;28;20034;-82
2022/08/09 01:30:47;;;;;;;4.38;2.00;;;;;;;;;;4991333;28;20493;-82
2022/08/09 01:33:13;;;;;;;5.22;1.90;;;;;;;;;;5003967;28;20049;-83
2022/08/09 01:35:48;;;;;;;3.90;2.00;;;;;;;;;;5000406;28;20046;-82
2022/08/09 01:38:18;;;;;;;3.85;2.00;;;;;;;;;;4994616;28;20431;-81
2022/08/09 01:40:49;;;;;;;4.63;2.13;;;;;;;;;;4988099;28;20030;-82
2022/08/09 01:43:15;;;;;;;3.45;1.80;;;;;;;;;;4970103;28;20050;-82
2022/08/09 01:45:41;;;;;;;4.43;2.10;;;;;;;;;;4985397;28;20038;-82
2022/08/09 01:48:08;;;;;;;4.05;2.15;;;;;;;;;;5005669;28;20045;-82
2022/08/09 01:50:33;;;;;;;3.80;2.20;;;;;;;;;;4987163;28;20236;-82
2022/08/09 01:53:00;;;;;;;4.47;2.67;;;;;;;;;;5017813;28;20120;-82
2022/08/09 01:58:12;;;;;;;4.78;2.00;;;;;;;;;;5003822;28;20038;-82
2022/08/09 02:00:38;;;;;;;3.70;2.10;;;;;;;;;;5002026;28;20104;-82
2022/08/09 02:03:04;;;;;;;4.25;2.20;;;;;;;;;;4987391;28;20034;-81
2022/08/09 02:05:32;;;;;;;3.40;2.00;;;;;;;;;;5005018;28;20029;-82
2022/08/09 02:08:08;;;;;;;4.90;2.17;;;;;;;;;;4992131;28;20030;-82
2022/08/09 02:10:39;;;;;;;4.38;1.90;;;;;;;;;;5001633;28;20053;-81
2022/08/09 02:13:07;;;;;;;3.95;2.03;;;;;;;;;;4990962;28;20573;-81
2022/08/09 02:15:36;;;;;;;4.95;2.40;;;;;;;;;;4994105;28;20046;-82
2022/08/09 02:18:03;;;;;;;4.38;1.90;;;;;;;;;;5016796;28;20389;-82
2022/08/09 02:20:31;;;;;;;6.00;1.85;;;;;;;;;;5001100;28;20037;-81
2022/08/09 02:23:17;;;;;;;5.18;1.95;;;;;;;;;;5007810;28;20045;-81
2022/08/09 02:25:44;;;;;;;3.97;2.40;;;;;;;;;;5017219;28;20030;-85
2022/08/09 02:28:42;;;;;;;4.13;2.00;;;;;;;;;;4987042;28;20030;-82
2022/08/09 02:31:12;;;;;;;5.70;2.28;;;;;;;;;;4982125;28;20535;-82
2022/08/09 02:33:40;;;;;;;4.10;1.98;;;;;;;;;;4985725;28;20068;-82
2022/08/09 02:36:07;;;;;;;5.00;1.77;;;;;;;;;;4986156;28;20033;-82
2022/08/09 02:38:35;;;;;;;6.28;2.13;;;;;;;;;;4988266;28;20536;-82
2022/08/09 02:41:06;;;;;;;4.15;1.90;;;;;;;;;;4993670;28;20088;-83
2022/08/09 02:43:33;;;;;;;4.80;2.10;;;;;;;;;;4998438;28;20034;-82
2022/08/09 02:46:00;;;;;;;4.68;2.30;;;;;;;;;;5014867;28;20104;-83
2022/08/09 02:48:27;;;;;;;4.40;2.05;;;;;;;;;;5000141;28;20065;-82
2022/08/09 02:50:54;;;;;;;3.95;2.45;;;;;;;;;;4993562;28;20033;-82
2022/08/09 02:53:24;;;;;;;4.32;2.22;;;;;;;;;;4983517;28;20034;-83
2022/08/09 02:55:50;;;;;;;4.28;2.38;;;;;;;;;;4991583;28;20038;-83
2022/08/09 02:58:17;;;;;;;4.35;2.00;;;;;;;;;;5000326;28;20120;-83
2022/08/09 03:00:43;;;;;;;5.30;2.08;;;;;;;;;;5018854;28;20508;-82
2022/08/09 03:03:10;;;;;;;3.75;2.00;;;;;;;;;;5010378;28;20053;-82
2022/08/09 03:05:36;;;;;;;3.33;2.03;;;;;;;;;;4986912;28;20215;-82
2022/08/09 03:08:03;;;;;;;4.13;1.87;;;;;;;;;;5002058;28;20026;-80
2022/08/09 03:10:29;;;;;;;4.30;2.13;;;;;;;;;;4990224;28;20109;-82
2022/08/09 03:12:55;;;;;;;3.53;1.88;;;;;;;;;;4994113;28;20133;-81
2022/08/09 03:15:21;;;;;;;3.40;1.90;;;;;;;;;;4999059;28;20133;-81
2022/08/09 03:17:47;;;;;;;3.67;2.00;;;;;;;;;;5001184;28;20129;-81
2022/08/09 03:20:13;;;;;;;3.70;1.95;;;;;;;;;;4987722;28;20038;-81
2022/08/09 03:22:39;;;;;;;4.38;2.30;;;;;;;;;;4984802;28;20109;-81
2022/08/09 03:25:06;;;;;;;7.33;2.43;;;;;;;;;;5015439;28;20065;-82
2022/08/09 03:27:33;;;;;;;4.30;2.03;;;;;;;;;;4999127;28;20269;-81
2022/08/09 03:29:58;;;;;;;5.18;2.08;;;;;;;;;;4988535;28;20474;-81
2022/08/09 03:32:24;;;;;;;4.88;1.98;;;;;;;;;;5013723;28;20095;-82
2022/08/09 03:34:53;;;;;;;4.72;1.98;;;;;;;;;;4999041;28;20085;-82
2022/08/09 03:37:18;;;;;;;3.58;2.13;;;;;;;;;;4999679;28;20033;-83
2022/08/09 03:39:44;;;;;;;5.47;2.40;;;;;;;;;;5000206;28;20047;-81
2022/08/09 03:42:09;;;;;;;4.43;2.40;;;;;;;;;;4989379;28;20460;-82
2022/08/09 03:44:35;;;;;;;5.70;2.42;;;;;;;;;;4989665;28;20516;-82
2022/08/09 03:47:00;;;;;;;4.05;1.90;;;;;;;;;;5009438;28;20061;-82
2022/08/09 03:49:26;;;;;;;4.00;2.03;;;;;;;;;;5002129;28;20029;-82
2022/08/09 03:51:55;;;;;;;4.63;2.03;;;;;;;;;;4986164;28;20501;-81
2022/08/09 03:54:23;;;;;;;3.85;2.00;;;;;;;;;;4993066;28;20516;-82
2022/08/09 03:56:49;;;;;;;;;;;;;;;;;;4992675;28;20056;-81
2022/08/09 03:59:14;;;;;;;4.30;2.05;;;;;;;;;;4990332;28;19917;-81
2022/08/09 04:01:40;;;;;;;3.90;2.05;;;;;;;;;;4982378;28;20317;-81
2022/08/09 04:04:06;;;;;;;8.68;2.53;;;;;;;;;;4986325;28;20089;-82
2022/08/09 04:06:31;;;;;;;7.75;2.25;;;;;;;;;;5000821;28;20090;-82
2022/08/09 04:08:57;;;;;;;4.28;2.20;;;;;;;;;;5016272;28;20452;-83
2022/08/09 04:11:22;;;;;;;4.00;2.03;;;;;;;;;;4984915;28;20356;-83
2022/08/09 04:13:48;;;;;;;3.88;2.13;;;;;;;;;;4990863;28;20038;-82
2022/08/09 04:16:13;;;;;;;7.18;2.45;;;;;;;;;;4986787;28;20393;-84
2022/08/09 04:18:39;;;;;;;4.28;2.35;;;;;;;;;;4999698;28;20493;-83
2022/08/09 04:21:05;;;;;;;4.05;2.10;;;;;;;;;;4991444;28;20044;-82
2022/08/09 04:23:31;;;;;;;4.25;2.28;;;;;;;;;;5019666;28;20025;-83
2022/08/09 04:25:56;;;;;;;4.35;2.40;;;;;;;;;;4985135;28;20058;-83
2022/08/09 04:28:23;;;;;;;6.22;2.60;;;;;;;;;;4983329;28;20567;-83
2022/08/09 04:30:48;;;;;;;6.15;2.13;;;;;;;;;;4984526;28;20098;-83
2022/08/09 04:33:14;;;;;;;5.57;2.50;;;;;;;;;;4987917;28;20128;-83
2022/08/09 04:35:41;;;;;;;5.43;2.30;;;;;;;;;;4983827;28;20034;-83
2022/08/09 04:38:06;;;;;;;4.37;2.00;;;;;;;;;;4993117;28;20030;-82
2022/08/09 04:40:47;;;;;;;5.10;2.45;;;;;;;;;;4982044;28;20280;-81
2022/08/09 04:43:13;;;;;;;5.38;2.30;;;;;;;;;;5001091;28;20037;-83
2022/08/09 04:45:40;;;;;;;3.78;2.03;;;;;;;;;;4983765;28;20049;-83
2022/08/09 04:48:06;;;;;;;5.75;2.10;;;;;;;;;;4997189;28;20061;-83
2022/08/09 04:50:34;;;;;;;4.45;2.22;;;;;;;;;;5001363;28;20048;-82
2022/08/09 04:52:59;;;;;;;4.97;2.40;;;;;;;;;;5007273;28;20082;-83
2022/08/09 04:55:24;;;;;;;5.18;2.28;;;;;;;;;;4996614;28;20037;-83
2022/08/09 04:57:50;;;;;;;3.85;2.08;;;;;;;;;;4981344;28;20104;-84
2022/08/09 05:00:15;;;;;;;4.85;2.13;;;;;;;;;;4981217;28;20040;-83
2022/08/09 05:02:43;;;;;;;5.07;2.40;;;;;;;;;;4982113;28;20437;-84
2022/08/09 05:05:08;;;;;;;4.20;2.20;;;;;;;;;;5006237;28;20500;-83
2022/08/09 05:07:34;;;;;;;3.83;2.03;;;;;;;;;;4998481;28;20025;-84
2022/08/09 05:09:59;;;;;;;7.95;2.28;;;;;;;;;;4988185;28;20080;-83
2022/08/09 05:12:24;;;;;;;7.85;2.22;;;;;;;;;;4980352;28;20041;-84
2022/08/09 05:14:50;;;;;;;6.40;2.45;;;;;;;;;;4983608;28;20145;-84
2022/08/09 05:17:15;;;;;;;9.32;2.75;;;;;;;;;;4981733;28;20133;-82
2022/08/09 05:19:40;;;;;;;6.15;2.65;;;;;;;;;;4986266;28;20042;-82
2022/08/09 05:22:06;;;;;;;5.25;2.40;;;;;;;;;;4977928;28;20576;-82
2022/08/09 05:24:32;;;;;;;5.88;2.40;;;;;;;;;;4989831;28;20030;-82
2022/08/09 05:26:57;;;;;;;4.07;2.50;;;;;;;;;;4984747;28;20405;-82
2022/08/09 05:29:22;;;;;;;4.78;2.25;;;;;;;;;;4985459;28;20179;-82
2022/08/09 05:31:49;;;;;;;5.30;2.67;;;;;;;;;;4998211;28;20057;-83
2022/08/09 05:34:14;;;;;;;5.35;2.42;;;;;;;;;;5013677;28;20409;-83
2022/08/09 05:36:40;;;;;;;5.63;2.70;;;;;;;;;;4996149;28;20052;-84
2022/08/09 05:39:06;;;;;;;4.07;2.20;;;;;;;;;;4998074;28;20038;-82
2022/08/09 05:41:31;;;;;;;6.35;2.50;;;;;;;;;;4990663;28;20034;-82
2022/08/09 05:43:57;;;;;;;8.85;2.38;;;;;;;;;;5005207;28;20037;-83
2022/08/09 05:46:23;;;;;;;6.68;2.88;;;;;;;;;;4995920;28;20117;-82
2022/08/09 05:48:48;;;;;;;5.57;2.42;;;;;;;;;;4991216;28;20038;-82
2022/08/09 05:51:13;;;;;;;5.60;2.53;;;;;;;;;;5000416;28;20125;-83
2022/08/09 05:53:39;;;;;;;5.72;2.90;;;;;;;;;;4990681;28;20100;-83
2022/08/09 05:56:04;;;;;;;4.97;2.50;;;;;;;;;;4983064;28;20032;-81
2022/08/09 05:58:30;;;;;;;4.85;2.50;;;;;;;;;;4998078;28;20049;-81
2022/08/09 06:00:55;;;;;;;8.32;2.67;;;;;;;;;;4982476;28;20037;-80
2022/08/09 06:03:20;;;;;;;5.47;2.10;;;;;;;;;;4978786;28;20036;-80
2022/08/09 06:05:46;;;;;;;6.13;2.70;;;;;;;;;;5004115;28;20045;-80
2022/08/09 06:08:11;;;;;;;5.28;3.10;;;;;;;;;;5013306;28;20673;-81
2022/08/09 06:10:39;;;;;;;5.25;2.78;;;;;;;;;;5002281;28;20033;-80
2022/08/09 06:13:07;;;;;;;6.07;2.25;;;;;;;;;;5003601;28;20034;-80
2022/08/09 06:15:32;;;;;;;5.90;2.58;;;;;;;;;;5010908;28;20049;-79
2022/08/09 06:17:58;;;;;;;8.15;3.17;;;;;;;;;;4998740;28;20396;-80
2022/08/09 06:20:24;;;;;;;6.25;2.40;;;;;;;;;;5007730;28;20038;-81
2022/08/09 06:22:49;;;;;;;6.13;2.40;;;;;;;;;;4987487;28;20034;-80
2022/08/09 06:25:15;;;;;;;3.63;2.20;;;;;;;;;;4985126;28;20036;-81
2022/08/09 06:27:40;;;;;;;4.35;2.20;;;;;;;;;;4986595;28;20033;-81
2022/08/09 06:30:06;;;;;;;6.88;2.42;;;;;;;;;;4992666;28;20044;-80
2022/08/09 06:32:32;;;;;;;5.32;2.65;;;;;;;;;;5014671;28;20500;-81
2022/08/09 06:34:57;;;;;;;7.28;2.92;;;;;;;;;;5015591;28;20095;-82
2022/08/09 06:37:23;;;;;;;5.43;2.55;;;;;;;;;;4985422;28;20037;-82
2022/08/09 06:39:49;;;;;;;7.88;2.60;;;;;;;;;;5000287;28;20405;-82
2022/08/09 06:42:19;;;;;;;5.88;2.33;;;;;;;;;;4997170;28;20486;-82
2022/08/09 06:44:45;;;;;;;10.38;3.03;;;;;;;;;;5003005;28;20030;-82
2022/08/09 06:47:10;;;;;;;6.57;2.80;;;;;;;;;;4991585;28;20026;-82
2022/08/09 06:49:35;;;;;;;3.90;2.28;;;;;;;;;;4999054;28;20113;-82
2022/08/09 06:52:01;;;;;;;6.38;2.35;;;;;;;;;;4985855;28;20045;-80
2022/08/09 06:54:26;;;;;;;6.97;2.60;;;;;;;;;;5006203;28;20041;-81
2022/08/09 06:56:52;;;;;;;5.30;2.08;;;;;;;;;;4997536;28;20075;-81
2022/08/09 06:59:17;;;;;;;6.65;2.20;;;;;;;;;;5016447;28;20037;-82
2022/08/09 07:01:43;;;;;;;6.57;2.35;;;;;;;;;;4998128;28;20037;-81
2022/08/09 07:04:08;;;;;;;6.97;2.47;;;;;;;;;;4995331;28;20048;-81
2022/08/09 07:06:34;;;;;;;5.25;2.13;;;;;;;;;;4997138;28;20026;-80
2022/08/09 07:08:59;;;;;;;6.55;1.90;;;;;;;;;;4996077;28;20497;-81
2022/08/09 07:11:24;;;;;;;5.35;2.25;;;;;;;;;;4996282;28;20038;-81
2022/08/09 07:13:50;;;;;;;4.35;2.13;;;;;;;;;;4986346;28;20051;-81
2022/08/09 07:16:15;;;;;;;4.18;2.15;;;;;;;;;;4997249;28;20049;-81
2022/08/09 07:18:40;;;;;;;4.20;2.03;;;;;;;;;;4991096;28;20037;-81
2022/08/09 07:21:06;;;;;;;7.03;2.80;;;;;;;;;;5013298;28;20396;-81
2022/08/09 07:23:31;;;;;;;4.75;2.17;;;;;;;;;;5007862;28;20041;-82
2022/08/09 07:25:56;;;;;;;5.80;2.20;;;;;;;;;;4983422;28;20460;-82
2022/08/09 07:28:22;;;;;;;3.75;2.10;;;;;;;;;;5015057;28;20037;-82
2022/08/09 07:30:48;;;;;;;3.83;1.88;;;;;;;;;;4992372;28;20133;-82
2022/08/09 07:33:14;;;;;;;6.83;2.43;;;;;;;;;;4991426;28;20091;-80
2022/08/09 07:35:39;;;;;;;4.28;1.85;;;;;;;;;;4997818;28;20034;-80
2022/08/09 07:38:05;;;;;;;3.92;2.00;;;;;;;;;;5013853;28;20441;-81
2022/08/09 07:40:33;;;;;;;5.22;2.28;;;;;;;;;;4997757;28;20504;-81
2022/08/09 07:42:59;;;;;;;3.67;1.80;;;;;;;;;;4990029;28;20030;-81
2022/08/09 07:45:27;;;;;;;9.02;1.98;;;;;;;;;;4984251;28;20512;-81
2022/08/09 07:47:53;;;;;;;4.47;2.08;;;;;;;;;;5013944;28;20121;-82
2022/08/09 07:50:23;;;;;;;5.47;1.85;;;;;;;;;;4999075;28;20600;-82
2022/08/09 07:52:48;;;;;;;8.02;3.72;;;;;;;;;;4981671;28;20417;-82
2022/08/09 07:55:14;;;;;;;4.88;2.42;;;;;;;;;;5014335;28;20044;-82
2022/08/09 07:57:39;;;;;;;6.25;1.88;;;;;;;;;;4994585;28;20034;-82
2022/08/09 08:00:05;;;;;;;4.65;1.85;;;;;;;;;;4977737;28;20032;-81
2022/08/09 08:02:31;;;;;;;5.70;1.90;;;;;;;;;;5013005;28;20507;-82
2022/08/09 08:04:56;;;;;;;7.38;1.90;;;;;;;;;;4999291;28;20033;-81
2022/08/09 08:07:22;;;;;;;5.03;2.10;;;;;;;;;;5012869;28;20532;-82
2022/08/09 08:09:47;;;;;;;4.63;1.80;;;;;;;;;;4996733;28;20042;-82
2022/08/09 08:12:13;;;;;;;4.22;1.63;;;;;;;;;;5012929;28;20200;-82
2022/08/09 08:14:38;;;;;;;4.38;1.92;;;;;;;;;;4997681;28;20057;-83
2022/08/09 08:17:04;;;;;;;6.38;1.77;;;;;;;;;;4980528;28;20135;-82
2022/08/09 08:19:30;;;;;;;4.22;1.60;;;;;;;;;;4996048;28;20486;-82
2022/08/09 08:21:56;;;;;;;4.50;1.60;;;;;;;;;;4996397;28;20041;-81
2022/08/09 08:24:21;;;;;;;4.45;1.60;;;;;;;;;;5013915;28;20136;-80
2022/08/09 08:26:47;;;;;;;4.50;1.50;;;;;;;;;;4980073;28;20125;-81
2022/08/09 08:29:18;;;;;;;4.22;1.80;;;;;;;;;;4989991;28;20064;-88
2022/08/09 08:31:44;;;;;;;3.60;1.60;;;;;;;;;;5012143;28;20045;-87
2022/08/09 08:34:09;;;;;;;2.97;1.42;;;;;;;;;;4990353;28;20030;-90
2022/08/09 08:36:35;;;;;;;3.42;1.63;;;;;;;;;;4988966;28;20038;-88
2022/08/09 08:39:01;;;;;;;4.60;1.30;;;;;;;;;;4984213;28;20084;-89
2022/08/09 08:41:26;;;;;;;3.17;1.23;;;;;;;;;;4981816;28;20033;-87
2022/08/09 08:43:52;;;;;;;3.63;1.40;;;;;;;;;;4994651;28;20053;-89
2022/08/09 08:46:20;;;;;;;4.55;1.60;;;;;;;;;;4983941;28;20441;-89
2022/08/09 08:48:46;;;;;;;2.95;1.42;;;;;;;;;;4986173;28;20038;-91
2022/08/09 08:51:11;;;;;;;3.63;1.50;;;;;;;;;;4983200;28;20041;-90
2022/08/09 08:53:37;;;;;;;3.00;1.23;;;;;;;;;;4990493;28;20327;-89
2022/08/09 08:56:03;;;;;;;3.47;1.10;;;;;;;;;;4981419;28;20084;-89
2022/08/09 08:58:31;;;;;;;4.33;1.40;;;;;;;;;;5000128;28;20107;-89
2022/08/09 09:00:57;;;;;;;2.78;1.13;;;;;;;;;;4982906;28;20280;-88
2022/08/09 09:03:28;;;;;;;1.85;0.82;;;;;;;;;;4979906;28;20053;-90
2022/08/09 09:05:56;;;;;;;2.60;1.15;;;;;;;;;;4983741;28;20087;-88
2022/08/09 09:08:22;;;;;;;4.00;1.40;;;;;;;;;;4981471;28;21876;-88
2022/08/09 09:10:48;;;;;;;2.65;1.20;;;;;;;;;;4982680;28;20401;-88
2022/08/09 09:13:18;;;;;;;3.38;1.17;;;;;;;;;;4965891;28;20034;-90
2022/08/09 09:15:44;;;;;;;3.35;0.93;;;;;;;;;;4983479;28;20057;-89
2022/08/09 09:18:14;;;;;;;2.77;1.10;;;;;;;;;;4982996;28;20096;-92
2022/08/09 09:20:42;;;;;;;3.35;1.40;;;;;;;;;;4998308;28;20046;-89
2022/08/09 09:23:07;;;;;;;2.92;1.10;;;;;;;;;;4988260;28;20701;-89
2022/08/09 09:25:41;;;;;;;4.10;1.10;;;;;;;;;;4987772;28;20026;-89
2022/08/09 09:32:08;;;;;;;2.60;1.10;;;;;;;;;;4920767;28;20448;-92
2022/08/09 09:35:38;;;;;;;;;;;;;;;;;;;;;
2022/08/09 10:30:05;;;;;;;2.35;1.05;;;;;;;;;;4986266;28;20564;-89
2022/08/09 10:32:30;;;;;;;3.95;1.00;;;;;;;;;;4958294;28;20105;-92
2022/08/09 10:34:58;;;;;;;4.47;1.05;;;;;;;;;;4998837;28;20133;-90
2022/08/09 10:37:27;;;;;;;2.63;0.95;;;;;;;;;;4976763;28;20050;-91
2022/08/09 10:39:53;;;;;;;2.13;0.95;;;;;;;;;;4976753;28;20498;-90
2022/08/09 10:42:20;;;;;;;3.00;1.20;;;;;;;;;;4995556;28;20060;-90
2022/08/09 10:44:48;;;;;;;2.70;0.90;;;;;;;;;;4988729;28;20054;-91
2022/08/09 10:47:32;;;;;;;2.38;0.93;;;;;;;;;;4986604;28;20553;-90
2022/08/09 10:50:21;;;;;;;2.72;1.20;;;;;;;;;;5003070;28;20414;-91
2022/08/09 10:53:49;;;;;;;;;;;;;;;;;;;;;
2022/08/09 11:25:57;;;;;;;3.42;1.17;;;;;;;;;;5044436;22;20057;-89
2022/08/09 11:28:57;;;;;;;2.70;1.00;;;;;;;;;;4968611;28;20486;-90
2022/08/09 11:31:45;;;;;;;2.47;1.15;;;;;;;;;;4878397;28;20755;-84
2022/08/09 11:34:19;;;;;;;2.92;1.20;;;;;;;;;;4963295;28;20131;-84
2022/08/09 11:36:45;;;;;;;3.28;1.40;;;;;;;;;;4983567;28;20379;-82
2022/08/09 11:39:11;;;;;;;2.53;1.10;;;;;;;;;;4962915;28;20148;-84
2022/08/09 11:41:36;;;;;;;3.10;1.40;;;;;;;;;;4964654;28;20087;-85
2022/08/09 11:44:02;;;;;;;2.30;0.90;;;;;;;;;;4973336;28;20132;-85
2022/08/09 11:46:51;;;;;;;3.00;1.63;;;;;;;;;;4968963;28;20460;-85
2022/08/09 11:49:17;;;;;;;3.53;1.30;;;;;;;;;;4987100;28;20037;-85
2022/08/09 11:52:02;;;;;;;3.38;1.30;;;;;;;;;;5005400;28;20560;-85
2022/08/09 11:54:27;;;;;;;3.05;1.30;;;;;;;;;;4967175;28;20126;-85
2022/08/09 11:56:52;;;;;;;4.43;1.30;;;;;;;;;;4988975;28;20117;-85
2022/08/09 11:59:28;;;;;;;4.27;1.30;;;;;;;;;;4983250;28;20038;-86
2022/08/09 12:01:53;;;;;;;3.35;1.35;;;;;;;;;;4988393;28;20050;-85
2022/08/09 12:04:19;;;;;;;2.43;1.10;;;;;;;;;;4970565;28;20100;-86
2022/08/09 12:06:52;;;;;;;3.28;1.33;;;;;;;;;;4958653;28;20046;-86
2022/08/09 12:09:27;;;;;;;3.08;1.20;;;;;;;;;;4987291;28;20037;-86
2022/08/09 12:11:56;;;;;;;3.30;1.30;;;;;;;;;;4985585;28;20046;-84
2022/08/09 12:14:28;;;;;;;4.05;1.33;;;;;;;;;;4972992;28;20038;-85
2022/08/09 12:16:54;;;;;;;4.35;1.20;;;;;;;;;;4986332;28;20033;-83
2022/08/09 12:19:27;;;;;;;3.00;1.25;;;;;;;;;;4988318;28;20460;-84
2022/08/09 12:22:10;;;;;;;3.20;1.30;;;;;;;;;;4987284;28;20618;-88
2022/08/09 12:24:36;;;;;;;2.72;1.30;;;;;;;;;;4960963;28;20038;-89
2022/08/09 12:27:03;;;;;;;2.88;1.60;;;;;;;;;;4995396;28;20524;-87
2022/08/09 12:29:31;;;;;;;2.65;1.15;;;;;;;;;;5008223;28;20037;-87
2022/08/09 12:32:05;;;;;;;5.13;1.50;;;;;;;;;;4992862;28;20057;-91
2022/08/09 12:34:52;;;;;;;3.50;1.40;;;;;;;;;;5024723;28;20029;-88
2022/08/09 12:37:17;;;;;;;2.42;1.30;;;;;;;;;;4991584;28;20072;-88
2022/08/09 12:40:17;;;;;;;3.50;1.38;;;;;;;;;;5008216;28;20462;-89
2022/08/09 12:42:44;;;;;;;2.97;1.55;;;;;;;;;;5014653;28;20053;-86
2022/08/09 12:45:12;;;;;;;2.40;1.20;;;;;;;;;;5007390;28;20044;-86
2022/08/09 12:47:47;;;;;;;4.22;1.30;;;;;;;;;;5004771;28;20049;-85
2022/08/09 12:50:21;;;;;;;2.80;1.35;;;;;;;;;;4990822;28;20064;-87
2022/08/09 12:52:48;;;;;;;4.38;1.50;;;;;;;;;;5007899;28;20397;-86
2022/08/09 12:55:25;;;;;;;2.92;1.40;;;;;;;;;;5004978;28;20044;-87
2022/08/09 12:58:05;;;;;;;3.53;1.58;;;;;;;;;;5001556;28;20942;-88
2022/08/09 13:00:47;;;;;;;;;;;;;;;;;;;;;
2022/08/09 13:03:32;;;;;;;3.65;1.35;;;;;;;;;;4988390;28;20575;-89
2022/08/09 13:06:05;;;;;;;5.03;1.50;;;;;;;;;;4986674;28;20049;-88
2022/08/09 13:12:06;;;;;;;3.72;1.50;;;;;;;;;;4999382;28;20091;-88
2022/08/09 13:14:32;;;;;;;2.50;1.40;;;;;;;;;;5020003;28;20378;-87
2022/08/09 13:17:02;;;;;;;3.40;1.40;;;;;;;;;;5013193;28;20041;-86
2022/08/09 13:19:37;;;;;;;5.10;1.65;;;;;;;;;;5002728;28;20045;-88
2022/08/09 13:22:23;;;;;;;4.43;1.45;;;;;;;;;;4989141;28;20042;-87
2022/08/09 13:25:00;;;;;;;3.63;1.27;;;;;;;;;;4995504;28;20057;-89
2022/08/09 13:28:08;;;;;;;4.70;1.30;;;;;;;;;;4946806;28;20105;-86
2022/08/09 13:30:43;;;;;;;3.40;1.63;;;;;;;;;;4912212;28;20032;-88
2022/08/09 13:33:40;;;;;;;3.42;1.50;;;;;;;;;;4919025;28;20123;-88
2022/08/09 13:36:53;;;;;;;3.60;1.48;;;;;;;;;;4896401;28;20137;-86
2022/08/09 13:39:53;;;;;;;3.53;1.50;;;;;;;;;;4944782;28;20081;-86
2022/08/09 13:53:15;;;;;;;3.17;1.30;;;;;;;;;;4836594;29;20119;-87
2022/08/09 13:55:44;;;;;;;4.22;1.30;;;;;;;;;;4850576;29;20470;-87
2022/08/09 13:58:12;;;;;;;4.53;1.30;;;;;;;;;;4845217;29;20044;-86
2022/08/09 14:00:44;;;;;;;2.88;1.20;;;;;;;;;;4824408;29;20053;-86
2022/08/09 14:03:21;;;;;;;2.70;1.40;;;;;;;;;;4793403;29;20504;-87
2022/08/09 14:05:53;;;;;;;;;;;;;;;;;;4799508;29;20096;-85
2022/08/09 14:09:03;;;;;;;2.50;1.20;;;;;;;;;;4854303;29;19931;-86
2022/08/09 14:11:38;;;;;;;2.47;1.35;;;;;;;;;;4874973;29;20166;-86
2022/08/09 14:14:28;;;;;;;;;;;;;;;;;;;;;
2022/08/09 14:20:30;;;;;;;3.45;1.30;;;;;;;;;;4789613;29;20081;-85
2022/08/09 14:23:02;;;;;;;3.83;1.20;;;;;;;;;;4791359;29;20502;-87
2022/08/09 14:25:27;;;;;;;2.38;1.23;;;;;;;;;;4795773;29;20050;-86
2022/08/09 14:27:53;;;;;;;2.80;1.30;;;;;;;;;;4809760;29;20053;-85
2022/08/09 14:30:18;;;;;;;4.15;1.38;;;;;;;;;;4870874;29;20056;-85
2022/08/09 14:40:55;;;;;;;3.63;1.48;;;;;;;;;;4779144;29;20748;-87
2022/08/09 14:43:40;;;;;;;4.10;1.30;;;;;;;;;;4782820;29;20046;-86
2022/08/09 14:50:25;;;;;;;;;;;;;;;;;;;;;
2022/08/09 14:52:58;;;;;;;3.33;1.30;;;;;;;;;;4770633;29;20475;-91
2022/08/09 14:55:30;;;;;;;2.28;0.93;;;;;;;;;;4767770;29;20519;-90
2022/08/09 14:57:55;;;;;;;2.95;1.10;;;;;;;;;;4825795;29;20048;-91
2022/08/09 15:01:36;;;;;;;3.53;1.10;;;;;;;;;;4835565;29;20023;-91
2022/08/09 15:04:44;;;;;;;8.85;1.60;;;;;;;;;;4847884;29;20129;-91
2022/08/09 15:07:27;;;;;;;5.35;1.30;;;;;;;;;;4875901;29;20578;-92
2022/08/09 15:10:32;;;;;;;2.40;1.00;;;;;;;;;;4863603;29;20112;-92
2022/08/09 15:13:35;;;;;;;2.65;1.10;;;;;;;;;;4816965;29;20037;-92
2022/08/09 15:16:03;;;;;;;1.95;0.90;;;;;;;;;;4889868;28;20039;-93
2022/08/09 15:18:29;;;;;;;2.58;1.10;;;;;;;;;;4914617;28;20050;-92
2022/08/09 15:20:54;;;;;;;2.58;1.10;;;;;;;;;;4926073;28;20036;-90
2022/08/09 15:24:16;;;;;;;;;;;;;;;;;;;;;
2022/08/09 15:26:52;;;;;;;5.25;1.23;;;;;;;;;;4913084;28;20498;-90
2022/08/09 15:29:22;;;;;;;2.70;1.27;;;;;;;;;;4931364;28;20046;-87
2022/08/09 15:31:48;;;;;;;3.30;1.30;;;;;;;;;;5006500;28;20531;-81
2022/08/09 15:34:13;;;;;;;3.20;1.00;;;;;;;;;;5008658;28;20045;-84
2022/08/09 15:36:38;;;;;;;4.45;1.20;;;;;;;;;;4996226;28;20574;-83
2022/08/09 15:39:06;;;;;;;2.45;0.80;;;;;;;;;;5008925;28;20037;-84
2022/08/09 15:41:32;;;;;;;3.20;1.20;;;;;;;;;;4992036;28;20034;-83
2022/08/09 15:43:57;;;;;;;3.35;1.30;;;;;;;;;;4989823;28;20558;-82
2022/08/09 15:46:23;;;;;;;2.90;1.20;;;;;;;;;;5005343;28;20037;-83
2022/08/09 15:48:48;;;;;;;2.38;1.10;;;;;;;;;;4992589;28;20703;-83
2022/08/09 15:51:14;;;;;;;3.60;1.20;;;;;;;;;;4991859;28;20021;-83
2022/08/09 15:53:39;;;;;;;2.65;1.20;;;;;;;;;;4992133;28;20087;-83
2022/08/09 15:56:07;;;;;;;2.03;0.95;;;;;;;;;;4992392;28;20026;-82
2022/08/09 15:58:32;;;;;;;3.70;1.20;;;;;;;;;;4993057;28;20029;-82
2022/08/09 16:00:58;;;;;;;2.65;1.10;;;;;;;;;;4990513;28;20029;-83
2022/08/09 16:03:23;;;;;;;3.00;1.27;;;;;;;;;;4990279;28;20045;-82
2022/08/09 16:05:48;;;;;;;5.53;1.20;;;;;;;;;;4992334;28;20509;-81
2022/08/09 16:08:14;;;;;;;3.55;1.08;;;;;;;;;;4991943;28;20033;-83
2022/08/09 16:10:39;;;;;;;2.55;1.10;;;;;;;;;;4992022;28;20076;-83
2022/08/09 16:13:06;;;;;;;2.00;1.00;;;;;;;;;;4991162;28;20044;-81
2022/08/09 16:15:31;;;;;;;2.40;1.00;;;;;;;;;;5008583;28;20041;-84
2022/08/09 16:17:57;;;;;;;2.78;1.17;;;;;;;;;;4988287;28;20048;-83
2022/08/09 16:20:23;;;;;;;2.88;1.30;;;;;;;;;;4991214;28;20072;-83
2022/08/09 16:22:48;;;;;;;4.72;1.40;;;;;;;;;;4987897;28;20457;-82
2022/08/09 16:25:14;;;;;;;2.28;1.00;;;;;;;;;;4988205;28;20037;-84
2022/08/09 16:27:39;;;;;;;2.78;1.17;;;;;;;;;;5009362;28;20091;-81
2022/08/09 16:30:07;;;;;;;5.25;2.08;;;;;;;;;;5009501;28;20041;-82
2022/08/09 16:35:16;;;;;;;5.15;1.10;;;;;;;;;;5029482;28;20032;-82
2022/08/09 16:37:41;;;;;;;2.70;0.98;;;;;;;;;;5023247;28;20036;-83
2022/08/09 16:40:09;;;;;;;3.33;1.10;;;;;;;;;;5025572;28;20473;-84
2022/08/09 16:42:35;;;;;;;2.97;1.10;;;;;;;;;;5012524;28;20029;-84
2022/08/09 16:45:00;;;;;;;2.47;0.93;;;;;;;;;;5011784;28;20035;-82
2022/08/09 16:47:26;;;;;;;2.60;1.10;;;;;;;;;;5010715;28;20037;-82
2022/08/09 16:49:51;;;;;;;4.35;1.27;;;;;;;;;;5010428;28;20113;-82
2022/08/09 16:52:16;;;;;;;3.08;1.17;;;;;;;;;;5008122;28;20493;-82
2022/08/09 16:54:41;;;;;;;3.75;1.00;;;;;;;;;;5025505;28;20536;-82
2022/08/09 16:57:07;;;;;;;3.30;0.95;;;;;;;;;;5010843;28;20036;-82
2022/08/09 16:59:33;;;;;;;2.42;1.10;;;;;;;;;;5011614;28;20500;-82
2022/08/09 17:01:58;;;;;;;2.53;1.05;;;;;;;;;;5024604;28;20043;-82
2022/08/09 17:04:23;;;;;;;3.78;0.95;;;;;;;;;;5011465;28;20037;-82